Time;durP1;ratioP1;P1;durP2;ratioP2;P2;SDS_P1;SDS_P2;PMS_P1;PMS_P2;Temp;Humidity;BMP_temperature;BMP_pressure;BME280_temperature;BME280_humidity;BME280_pressure;Samples;Min_cycle;Max_cycle;Signal;HPM_P1;HPM_P2
2021/12/10 00:02:09;;;;;;;2.78;2.67;;;;;;;2.88;100.00;99522.91;4305806;32;20070;-74
2021/12/10 00:04:36;;;;;;;2.80;2.70;;;;;;;2.37;100.00;99429.91;4305819;32;20486;-73
2021/12/10 00:07:14;;;;;;;2.72;2.62;;;;;;;2.85;100.00;99507.50;4321581;32;20428;-74
2021/12/10 00:09:46;;;;;;;3.87;3.72;;;;;;;2.87;100.00;99501.34;4304720;32;20201;-74
2021/12/10 00:12:23;;;;;;;2.80;2.70;;;;;;;2.45;100.00;99436.53;4310950;32;20062;-73
2021/12/10 00:14:48;;;;;;;4.20;4.00;;;;;;;2.86;100.00;99496.22;4321478;32;20105;-74
2021/12/10 00:17:14;;;;;;;2.90;2.80;;;;;;;2.84;100.00;99488.50;4307052;32;20558;-72
2021/12/10 00:19:50;;;;;;;4.47;4.28;;;;;;;2.88;99.45;99481.47;4358728;32;20141;-73
2021/12/10 00:22:19;;;;;;;3.50;3.40;;;;;;;2.89;98.93;99465.03;4316342;33;20113;-72
2021/12/10 00:24:46;;;;;;;4.30;4.10;;;;;;;2.88;98.65;99465.91;4305281;32;20106;-73
2021/12/10 00:27:12;;;;;;;2.90;2.80;;;;;;;2.85;98.40;99460.87;4317755;32;20070;-73
2021/12/10 00:29:40;;;;;;;3.10;3.00;;;;;;;2.86;98.23;99457.34;4315331;32;20070;-72
2021/12/10 00:32:16;;;;;;;2.83;2.72;;;;;;;2.63;97.86;99420.28;4339916;32;20082;-72
2021/12/10 00:34:47;;;;;;;4.07;3.87;;;;;;;2.67;97.93;99444.31;4301534;32;20631;-72
2021/12/10 00:37:13;;;;;;;2.80;2.70;;;;;;;2.64;98.38;99444.41;4314081;32;20114;-73
2021/12/10 00:39:44;;;;;;;3.70;3.58;;;;;;;2.56;98.36;99445.56;4317093;32;20144;-74
2021/12/10 00:42:12;;;;;;;3.08;2.97;;;;;;;2.35;98.11;99434.31;4329645;32;20323;-74
2021/12/10 00:44:37;;;;;;;3.97;3.80;;;;;;;2.22;99.11;99443.44;4318742;32;20098;-73
2021/12/10 00:47:03;;;;;;;2.70;2.60;;;;;;;2.14;99.72;99437.72;4337773;32;20085;-73
2021/12/10 00:49:28;;;;;;;2.65;2.55;;;;;;;2.13;100.00;99430.84;4337362;32;20078;-72
2021/12/10 00:51:54;;;;;;;2.90;2.80;;;;;;;2.04;100.00;99428.59;4327186;32;20074;-73
2021/12/10 00:54:19;;;;;;;2.70;2.60;;;;;;;2.01;100.00;99426.16;4339909;32;20089;-73
2021/12/10 00:56:45;;;;;;;4.15;3.95;;;;;;;1.93;100.00;99422.09;4320429;32;20067;-74
2021/12/10 00:59:10;;;;;;;2.70;2.60;;;;;;;1.69;100.00;99391.97;4351767;32;20078;-72
2021/12/10 01:01:36;;;;;;;3.83;3.65;;;;;;;1.88;100.00;99442.09;4322455;32;20091;-73
2021/12/10 01:04:08;;;;;;;2.90;2.80;;;;;;;1.63;100.00;99379.28;4340569;32;20083;-74
2021/12/10 01:06:33;;;;;;;3.30;3.05;;;;;;;1.58;100.00;99384.59;4320982;32;20324;-74
2021/12/10 01:09:01;;;;;;;2.60;2.50;;;;;;;1.69;100.00;99410.06;4338970;32;20062;-73
2021/12/10 01:11:31;;;;;;;3.03;2.87;;;;;;;1.68;100.00;99413.53;4342984;32;20074;-73
2021/12/10 01:14:09;;;;;;;2.67;2.58;;;;;;;1.64;100.00;99405.03;4332593;32;20062;-72
2021/12/10 01:27:36;;;;;;;2.75;2.65;;;;;;;1.26;100.00;99345.22;4341265;32;21015;-71
2021/12/10 01:30:22;;;;;;;2.50;2.40;;;;;;;1.42;100.00;99383.47;4355565;32;20058;-71
2021/12/10 01:32:56;;;;;;;3.83;3.70;;;;;;;1.23;100.00;99332.44;4318644;32;20077;-71
2021/12/10 01:35:24;;;;;;;3.33;3.03;;;;;;;1.43;100.00;99348.97;4358417;32;20093;-73
2021/12/10 01:37:50;;;;;;;3.60;3.50;;;;;;;1.44;100.00;99343.72;4342679;32;20724;-72
2021/12/10 01:40:20;;;;;;;2.80;2.70;;;;;;;1.46;100.00;99338.50;4340094;32;20066;-74
2021/12/10 01:42:48;;;;;;;3.80;3.67;;;;;;;1.27;100.00;99308.16;4371078;32;20084;-74
2021/12/10 01:45:22;;;;;;;2.80;2.70;;;;;;;1.44;100.00;99338.56;4351384;32;20113;-73
2021/12/10 01:47:55;;;;;;;4.00;3.83;;;;;;;1.44;100.00;99359.22;4341857;32;20098;-73
2021/12/10 01:50:20;;;;;;;2.65;2.55;;;;;;;1.50;100.00;99342.66;4339128;32;20083;-72
2021/12/10 01:52:49;;;;;;;4.18;3.97;;;;;;;1.53;100.00;99325.28;4348610;32;20094;-73
2021/12/10 01:55:19;;;;;;;2.50;2.40;;;;;;;1.71;100.00;99339.28;4335416;32;20591;-73
2021/12/10 01:57:45;;;;;;;4.15;3.95;;;;;;;1.79;100.00;99328.66;4317050;32;20074;-72
2021/12/10 02:00:10;;;;;;;2.85;2.75;;;;;;;1.33;100.00;99216.63;4319583;32;20580;-72
2021/12/10 02:02:37;;;;;;;3.95;3.78;;;;;;;2.04;99.54;99310.41;4313112;32;20082;-72
2021/12/10 02:05:04;;;;;;;2.75;2.65;;;;;;;1.96;98.79;99305.53;4318436;32;20079;-72
2021/12/10 02:07:30;;;;;;;2.92;2.83;;;;;;;1.76;98.23;99262.37;4329443;32;20666;-71
2021/12/10 02:09:55;;;;;;;3.08;2.97;;;;;;;1.98;97.63;99289.97;4331354;32;20088;-72
2021/12/10 02:12:20;;;;;;;2.65;2.55;;;;;;;1.88;97.43;99292.06;4330374;32;20087;-73
2021/12/10 02:14:50;;;;;;;3.62;3.53;;;;;;;1.83;97.35;99285.41;4332516;32;20122;-73
2021/12/10 02:17:16;;;;;;;2.78;2.67;;;;;;;1.79;97.85;99279.50;4328403;32;20070;-72
2021/12/10 02:19:41;;;;;;;5.07;4.72;;;;;;;1.81;98.22;99272.53;4349953;32;20078;-74
2021/12/10 02:22:06;;;;;;;2.62;2.53;;;;;;;1.85;97.73;99261.16;4338325;32;20164;-73
2021/12/10 02:24:32;;;;;;;2.70;2.60;;;;;;;1.93;96.87;99253.09;4326922;32;20089;-75
2021/12/10 02:26:59;;;;;;;2.90;2.80;;;;;;;1.92;96.21;99244.47;4343901;32;20063;-74
2021/12/10 02:29:27;;;;;;;2.70;2.60;;;;;;;1.87;96.23;99232.66;4373644;32;20105;-72
2021/12/10 02:31:54;;;;;;;2.90;2.80;;;;;;;0.63;96.00;99029.88;4340138;32;20124;-73
2021/12/10 02:34:19;;;;;;;2.80;2.70;;;;;;;1.76;95.84;99197.72;4334941;32;20098;-73
2021/12/10 02:36:44;;;;;;;4.07;3.87;;;;;;;2.01;95.38;99203.63;4330033;32;20144;-73
2021/12/10 02:39:11;;;;;;;2.60;2.50;;;;;;;1.32;94.97;99091.75;4321547;32;20075;-73
2021/12/10 02:41:37;;;;;;;4.22;4.03;;;;;;;1.13;93.98;99044.28;4315859;32;20082;-72
2021/12/10 02:44:03;;;;;;;2.60;2.50;;;;;;;1.65;94.25;99127.47;4318762;32;20635;-74
2021/12/10 02:46:28;;;;;;;2.70;2.60;;;;;;;1.98;93.79;99179.56;4332735;32;20178;-72
2021/12/10 02:48:54;;;;;;;2.60;2.50;;;;;;;1.84;94.22;99158.56;4341958;32;20193;-74
2021/12/10 02:51:20;;;;;;;2.80;2.70;;;;;;;1.89;94.58;99182.53;4328378;32;20082;-71
2021/12/10 02:53:46;;;;;;;2.80;2.70;;;;;;;1.91;94.87;99172.97;4327008;32;20082;-70
2021/12/10 02:56:12;;;;;;;2.50;2.40;;;;;;;1.92;95.24;99164.28;4313589;32;20424;-73
2021/12/10 02:58:38;;;;;;;2.60;2.50;;;;;;;1.84;95.36;99152.56;4308547;32;20597;-70
2021/12/10 03:01:09;;;;;;;2.83;2.72;;;;;;;1.72;95.59;99139.22;4372087;32;20085;-72
2021/12/10 03:03:36;;;;;;;2.50;2.40;;;;;;;1.84;96.23;99158.56;4332625;32;20067;-72
2021/12/10 03:06:08;;;;;;;2.50;2.40;;;;;;;1.66;96.10;99151.56;4342177;32;20072;-72
2021/12/10 03:08:33;;;;;;;3.47;3.33;;;;;;;1.73;96.21;99155.59;4320725;32;20952;-72
2021/12/10 03:10:59;;;;;;;4.20;3.90;;;;;;;1.55;96.68;99123.59;4338017;32;20094;-71
2021/12/10 03:13:24;;;;;;;2.60;2.50;;;;;;;1.64;97.31;99151.62;4333169;32;20117;-74
2021/12/10 03:15:51;;;;;;;4.00;3.83;;;;;;;1.61;97.79;99146.59;4322623;32;20157;-74
2021/12/10 03:18:18;;;;;;;2.55;2.45;;;;;;;1.67;97.13;99137.75;4318616;32;20067;-73
2021/12/10 03:20:44;;;;;;;4.30;4.10;;;;;;;1.68;97.29;99129.91;4317013;32;20082;-74
2021/12/10 03:23:11;;;;;;;2.60;2.50;;;;;;;1.72;96.59;99131.47;4317290;32;20093;-73
2021/12/10 03:25:36;;;;;;;3.87;3.70;;;;;;;1.72;96.72;99110.78;4327559;32;20082;-72
2021/12/10 03:28:02;;;;;;;2.80;2.70;;;;;;;1.73;96.37;99117.66;4317420;32;20087;-72
2021/12/10 03:30:31;;;;;;;3.20;3.10;;;;;;;1.77;96.01;99108.03;4324284;32;20069;-71
2021/12/10 03:32:56;;;;;;;2.50;2.40;;;;;;;1.76;95.59;99112.38;4326031;32;21748;-73
2021/12/10 03:35:28;;;;;;;2.90;2.80;;;;;;;1.73;95.28;99078.03;4324049;32;20075;-72
2021/12/10 03:37:54;;;;;;;2.50;2.40;;;;;;;1.82;95.44;99100.06;4332681;32;21074;-74
2021/12/10 03:40:19;;;;;;;2.90;2.80;;;;;;;1.77;94.90;99102.84;4324365;32;20094;-75
2021/12/10 03:42:45;;;;;;;2.55;2.45;;;;;;;1.67;95.10;99078.28;4308882;32;20411;-72
2021/12/10 03:45:11;;;;;;;3.15;2.95;;;;;;;1.75;94.98;99094.31;4307990;32;20067;-72
2021/12/10 03:47:36;;;;;;;3.17;3.08;;;;;;;1.65;95.09;99069.75;4313951;32;20062;-73
2021/12/10 03:50:01;;;;;;;2.60;2.50;;;;;;;1.71;95.44;99072.91;4319326;32;20116;-73
2021/12/10 03:52:27;;;;;;;2.75;2.65;;;;;;;1.67;95.39;99067.94;4347145;32;20144;-72
2021/12/10 03:54:54;;;;;;;3.42;3.33;;;;;;;1.68;95.31;99067.84;4357819;32;20196;-74
2021/12/10 03:57:19;;;;;;;2.60;2.50;;;;;;;1.61;95.17;99076.78;4332608;32;20125;-72
2021/12/10 03:59:45;;;;;;;3.97;3.80;;;;;;;1.59;96.41;99078.59;4359481;32;20071;-73
2021/12/10 04:02:10;;;;;;;2.65;2.55;;;;;;;1.62;96.40;99062.09;4345255;32;20705;-73
2021/12/10 04:04:42;;;;;;;2.92;2.83;;;;;;;1.66;96.28;99061.06;4342072;32;20075;-73
2021/12/10 04:07:10;;;;;;;2.70;2.60;;;;;;;1.76;95.78;99054.59;4326591;32;20112;-72
2021/12/10 04:09:36;;;;;;;3.50;3.40;;;;;;;1.81;95.72;99047.50;4360991;32;20459;-73
2021/12/10 04:12:01;;;;;;;2.70;2.60;;;;;;;1.87;94.84;99047.25;4339740;32;20074;-73
2021/12/10 04:14:26;;;;;;;2.78;2.67;;;;;;;1.41;94.97;98979.37;4337718;32;20177;-73
2021/12/10 04:16:56;;;;;;;3.45;3.35;;;;;;;1.94;94.46;99043.47;4353720;32;20412;-73
2021/12/10 04:19:22;;;;;;;2.67;2.58;;;;;;;2.03;94.28;99036.22;4354993;32;20089;-73
2021/12/10 04:21:48;;;;;;;4.80;4.55;;;;;;;1.95;93.42;99021.03;4360799;32;20079;-73
2021/12/10 04:24:16;;;;;;;2.47;2.37;;;;;;;2.07;93.44;99019.66;4349365;32;20074;-75
2021/12/10 04:26:42;;;;;;;4.05;3.85;;;;;;;1.65;92.99;98945.62;4327381;32;20691;-75
2021/12/10 04:29:07;;;;;;;2.60;2.50;;;;;;;2.01;92.99;98999.25;4330114;32;20128;-74
2021/12/10 04:31:33;;;;;;;2.83;2.72;;;;;;;2.10;92.58;99004.81;4337679;32;20087;-75
2021/12/10 04:33:58;;;;;;;2.60;2.50;;;;;;;2.15;92.38;99002.87;4342280;32;20070;-73
2021/12/10 04:36:23;;;;;;;2.60;2.50;;;;;;;2.14;92.29;99000.34;4347992;32;20069;-73
2021/12/10 04:38:49;;;;;;;4.25;4.05;;;;;;;2.10;91.99;98996.22;4341159;32;20101;-73
2021/12/10 04:41:14;;;;;;;2.58;2.47;;;;;;;2.12;91.87;98992.66;4331830;32;20580;-73
2021/12/10 04:43:41;;;;;;;4.05;3.85;;;;;;;2.11;92.04;99000.50;4327330;32;20378;-73
2021/12/10 04:46:06;;;;;;;2.70;2.60;;;;;;;2.12;92.03;98995.25;4326867;32;20066;-71
2021/12/10 04:48:58;;;;;;;2.55;2.45;;;;;;;2.25;91.50;99021.44;4327968;32;20227;-75
2021/12/10 04:51:29;;;;;;;2.55;2.45;;;;;;;2.26;91.40;98991.19;4332817;32;20676;-73
2021/12/10 04:53:54;;;;;;;3.15;3.05;;;;;;;2.18;91.24;98979.44;4366498;32;20071;-72
2021/12/10 04:56:20;;;;;;;2.60;2.50;;;;;;;2.16;91.37;98981.25;4341490;32;20081;-72
2021/12/10 04:58:45;;;;;;;4.15;3.95;;;;;;;2.12;92.00;98968.53;4338100;32;20070;-73
2021/12/10 05:01:11;;;;;;;2.70;2.60;;;;;;;2.04;92.15;98966.28;4344388;32;20560;-72
2021/12/10 05:03:36;;;;;;;3.95;3.75;;;;;;;2.03;92.45;98954.28;4330749;32;20581;-72
2021/12/10 05:06:03;;;;;;;2.72;2.62;;;;;;;1.88;92.83;98957.53;4350274;32;20135;-71
2021/12/10 05:08:30;;;;;;;2.80;2.70;;;;;;;1.84;92.87;98949.06;4340622;32;20568;-72
2021/12/10 05:10:55;;;;;;;2.67;2.58;;;;;;;1.94;92.97;98952.91;4351813;32;20553;-71
2021/12/10 05:13:21;;;;;;;2.72;2.62;;;;;;;1.97;92.80;98947.63;4353143;32;20479;-73
2021/12/10 05:15:53;;;;;;;4.07;3.87;;;;;;;1.97;92.35;98945.03;4332547;32;20066;-73
2021/12/10 05:18:19;;;;;;;2.70;2.60;;;;;;;1.99;92.03;98927.69;4359232;32;20066;-72
2021/12/10 05:20:48;;;;;;;4.18;3.97;;;;;;;1.90;91.83;98924.69;4354930;32;20094;-74
2021/12/10 05:23:14;;;;;;;3.08;2.95;;;;;;;1.72;92.09;98883.22;4363251;32;20082;-75
2021/12/10 05:25:40;;;;;;;4.00;3.80;;;;;;;1.96;92.21;98927.81;4339608;32;20082;-74
2021/12/10 05:28:05;;;;;;;2.65;2.55;;;;;;;1.82;92.38;98903.50;4332409;32;20081;-74
2021/12/10 05:30:31;;;;;;;2.78;2.67;;;;;;;1.93;91.97;98922.81;4330741;32;20073;-71
2021/12/10 05:32:57;;;;;;;2.70;2.60;;;;;;;1.93;91.83;98919.37;4380516;32;20083;-71
2021/12/10 05:35:22;;;;;;;2.67;2.58;;;;;;;1.85;92.30;98901.63;4329840;32;20082;-71
2021/12/10 05:37:48;;;;;;;4.05;3.87;;;;;;;0.63;92.00;98704.63;4313758;32;20545;-71
2021/12/10 05:40:15;;;;;;;2.80;2.70;;;;;;;1.88;92.10;98904.06;4339648;32;20192;-71
2021/12/10 05:42:42;;;;;;;4.32;4.12;;;;;;;1.94;91.76;98901.19;4334978;32;20079;-70
2021/12/10 05:45:07;;;;;;;2.70;2.60;;;;;;;1.89;91.78;98897.97;4324044;32;20104;-71
2021/12/10 05:47:33;;;;;;;2.97;2.87;;;;;;;0.31;91.69;98634.59;4340216;32;20098;-71
2021/12/10 05:49:58;;;;;;;3.08;2.97;;;;;;;1.85;91.82;98891.28;4353392;32;20619;-71
2021/12/10 05:52:23;;;;;;;2.70;2.60;;;;;;;1.70;92.68;98881.63;4361605;32;20075;-71
2021/12/10 05:54:50;;;;;;;4.18;3.97;;;;;;;1.79;92.35;98887.22;4356968;32;20209;-71
2021/12/10 05:57:16;;;;;;;2.60;2.50;;;;;;;1.84;92.20;98876.66;4318187;32;20532;-71
2021/12/10 05:59:41;;;;;;;4.28;4.07;;;;;;;1.82;92.29;98883.63;4341295;32;20058;-72
2021/12/10 06:02:07;;;;;;;2.67;2.58;;;;;;;1.81;91.99;98881.97;4336054;32;21651;-72
2021/12/10 06:04:34;;;;;;;2.65;2.55;;;;;;;0.92;92.22;98729.19;4331454;32;20075;-72
2021/12/10 06:07:00;;;;;;;2.70;2.60;;;;;;;1.65;92.68;98847.38;4319894;32;20162;-72
2021/12/10 06:09:25;;;;;;;2.72;2.62;;;;;;;1.78;92.01;98866.59;4355008;32;20085;-73
2021/12/10 06:11:50;;;;;;;3.83;3.70;;;;;;;1.74;92.10;98868.47;4320030;32;21245;-72
2021/12/10 06:14:16;;;;;;;2.60;2.50;;;;;;;1.80;92.04;98859.59;4345705;32;20113;-72
2021/12/10 06:16:41;;;;;;;4.18;3.97;;;;;;;1.81;91.77;98861.28;4332408;32;20875;-72
2021/12/10 06:19:06;;;;;;;2.60;2.50;;;;;;;0.27;92.08;98614.19;4334716;32;20124;-73
2021/12/10 06:21:33;;;;;;;2.62;2.53;;;;;;;1.72;92.34;98847.00;4339628;32;20098;-72
2021/12/10 06:23:59;;;;;;;2.60;2.50;;;;;;;1.78;91.51;98861.41;4331913;32;21101;-71
2021/12/10 06:26:24;;;;;;;2.60;2.50;;;;;;;1.74;92.12;98862.47;4321859;32;20074;-71
2021/12/10 06:28:49;;;;;;;4.55;4.35;;;;;;;1.71;91.73;98850.53;4333653;32;20094;-70
2021/12/10 06:31:16;;;;;;;2.60;2.50;;;;;;;1.74;91.88;98846.94;4318196;32;20075;-70
2021/12/10 06:33:42;;;;;;;4.10;3.90;;;;;;;1.73;91.77;98846.12;4334698;32;20137;-70
2021/12/10 06:36:08;;;;;;;2.80;2.70;;;;;;;1.69;92.16;98842.00;4324424;32;20453;-71
2021/12/10 06:38:34;;;;;;;2.62;2.53;;;;;;;1.65;92.81;98844.81;4317915;32;20193;-71
2021/12/10 06:40:59;;;;;;;3.30;3.10;;;;;;;1.62;92.37;98850.09;4316535;32;20093;-71
2021/12/10 06:43:24;;;;;;;2.92;2.83;;;;;;;1.66;92.53;98836.94;4317629;32;20106;-71
2021/12/10 06:45:51;;;;;;;2.60;2.50;;;;;;;1.76;92.04;98832.19;4321100;32;20136;-70
2021/12/10 06:48:17;;;;;;;2.50;2.40;;;;;;;1.24;91.95;98744.13;4324720;32;20157;-72
2021/12/10 06:50:47;;;;;;;3.35;3.25;;;;;;;1.73;91.60;98832.34;4339249;32;20081;-71
2021/12/10 06:53:13;;;;;;;2.40;2.30;;;;;;;1.75;91.49;98822.78;4362082;32;20117;-71
2021/12/10 06:55:38;;;;;;;4.12;3.92;;;;;;;1.78;90.99;98827.78;4347267;32;20094;-70
2021/12/10 06:58:04;;;;;;;2.70;2.60;;;;;;;1.72;91.36;98828.06;4330116;32;20071;-73
2021/12/10 07:00:44;;;;;;;2.70;2.50;;;;;;;1.70;91.55;98822.13;4352508;32;20681;-73
2021/12/10 07:03:11;;;;;;;2.70;2.60;;;;;;;1.68;92.22;98821.38;4332714;32;20453;-72
2021/12/10 07:05:37;;;;;;;2.95;2.85;;;;;;;1.57;91.39;98804.59;4381482;32;20181;-72
2021/12/10 07:08:02;;;;;;;2.55;2.45;;;;;;;1.11;91.42;98730.94;4325512;32;20094;-72
2021/12/10 07:10:27;;;;;;;2.65;2.55;;;;;;;1.70;91.52;98832.47;4327168;32;20087;-73
2021/12/10 07:12:53;;;;;;;2.70;2.60;;;;;;;1.76;91.00;98827.87;4318731;32;20059;-72
2021/12/10 07:15:18;;;;;;;2.47;2.37;;;;;;;1.78;91.42;98830.38;4340407;32;20485;-72
2021/12/10 07:17:45;;;;;;;3.83;3.70;;;;;;;1.74;90.56;98813.34;4329224;32;20167;-72
2021/12/10 07:20:11;;;;;;;2.60;2.50;;;;;;;1.80;90.56;98825.97;4372874;32;20090;-72
2021/12/10 07:22:37;;;;;;;3.10;3.00;;;;;;;1.63;90.58;98797.50;4356328;32;20608;-72
2021/12/10 07:25:03;;;;;;;2.40;2.30;;;;;;;1.78;90.91;98831.25;4326891;32;20062;-72
2021/12/10 07:27:29;;;;;;;2.45;2.35;;;;;;;1.80;90.76;98823.38;4354122;32;20337;-72
2021/12/10 07:29:54;;;;;;;2.58;2.47;;;;;;;1.81;90.28;98822.50;4339904;32;20075;-72
2021/12/10 07:32:20;;;;;;;2.60;2.50;;;;;;;1.89;89.95;98828.16;4338625;32;20081;-72
2021/12/10 07:34:45;;;;;;;4.15;3.95;;;;;;;1.27;89.37;98736.25;4316611;32;20094;-71
2021/12/10 07:37:10;;;;;;;2.60;2.50;;;;;;;1.21;89.48;98726.19;4381642;32;20475;-71
2021/12/10 07:39:37;;;;;;;4.00;3.83;;;;;;;1.86;89.24;98832.63;4353490;32;20141;-71
2021/12/10 07:42:07;;;;;;;2.70;2.60;;;;;;;1.84;89.57;98834.44;4369615;32;20091;-71
2021/12/10 07:44:32;;;;;;;2.60;2.50;;;;;;;1.91;89.04;98821.16;4335824;32;20131;-72
2021/12/10 07:47:00;;;;;;;2.75;2.65;;;;;;;1.93;88.84;98823.66;4335889;32;20571;-71
2021/12/10 07:49:29;;;;;;;2.60;2.50;;;;;;;1.94;88.48;98831.34;4319297;32;20071;-71
2021/12/10 07:51:55;;;;;;;3.15;3.05;;;;;;;1.98;88.11;98825.13;4321629;32;20066;-71
2021/12/10 07:54:21;;;;;;;2.40;2.30;;;;;;;1.97;88.59;98814.84;4330923;32;20098;-71
2021/12/10 07:56:46;;;;;;;4.30;4.10;;;;;;;1.31;87.71;98691.25;4302675;32;20556;-71
2021/12/10 07:59:11;;;;;;;2.50;2.40;;;;;;;1.82;87.18;98764.66;4323238;32;20082;-71
2021/12/10 08:01:37;;;;;;;4.25;4.05;;;;;;;1.30;87.63;98667.13;4330751;32;20587;-71
2021/12/10 08:04:03;;;;;;;2.60;2.50;;;;;;;2.25;87.36;98814.38;4319099;32;20451;-71
2021/12/10 08:06:29;;;;;;;2.60;2.50;;;;;;;2.28;87.27;98814.22;4331847;32;20745;-71
2021/12/10 08:08:54;;;;;;;2.50;2.40;;;;;;;2.35;86.69;98820.78;4314493;32;20077;-71
2021/12/10 08:11:20;;;;;;;2.80;2.70;;;;;;;2.40;86.45;98815.38;4329086;32;20070;-71
2021/12/10 08:13:45;;;;;;;4.10;3.90;;;;;;;2.23;86.31;98787.72;4327783;32;20679;-72
2021/12/10 08:16:11;;;;;;;2.70;2.60;;;;;;;1.78;86.31;98717.44;4321103;32;20089;-71
2021/12/10 08:18:36;;;;;;;2.97;2.87;;;;;;;2.49;85.89;98820.09;4324078;32;20069;-71
2021/12/10 08:21:02;;;;;;;4.93;3.15;;;;;;;2.56;85.38;98818.03;4316362;32;20106;-72
2021/12/10 08:23:28;;;;;;;2.70;2.60;;;;;;;2.03;84.87;98730.94;4322345;32;20073;-71
2021/12/10 08:25:53;;;;;;;3.20;3.10;;;;;;;2.51;85.22;98797.56;4307556;32;20612;-72
2021/12/10 08:28:22;;;;;;;2.55;2.45;;;;;;;2.70;84.56;98810.41;4314995;32;20470;-71
2021/12/10 08:30:48;;;;;;;4.50;4.30;;;;;;;2.68;84.51;98811.41;4321563;32;20095;-70
2021/12/10 08:33:14;;;;;;;2.70;2.60;;;;;;;2.69;85.07;98813.09;4328646;32;20106;-71
2021/12/10 08:35:42;;;;;;;4.62;4.43;;;;;;;2.71;84.95;98806.91;4349012;32;20061;-71
2021/12/10 08:38:07;;;;;;;2.70;2.60;;;;;;;2.68;85.21;98806.22;4320407;32;20460;-71
2021/12/10 08:40:37;;;;;;;2.87;2.78;;;;;;;2.80;84.32;98813.38;4320852;32;20082;-71
2021/12/10 08:43:03;;;;;;;2.70;2.60;;;;;;;2.80;84.24;98806.44;4322346;32;20095;-71
2021/12/10 08:45:30;;;;;;;2.60;2.50;;;;;;;2.83;83.92;98789.06;4309875;32;20152;-70
2021/12/10 08:47:56;;;;;;;2.72;2.62;;;;;;;2.86;83.25;98787.16;4314767;32;20071;-72
2021/12/10 08:50:23;;;;;;;2.70;2.60;;;;;;;2.90;83.24;98793.03;4326523;32;20607;-71
2021/12/10 08:52:57;;;;;;;4.10;3.90;;;;;;;2.89;83.11;98796.56;4325576;32;20110;-71
2021/12/10 08:55:23;;;;;;;3.00;2.90;;;;;;;2.78;82.89;98769.41;4309910;32;20354;-72
2021/12/10 08:57:48;;;;;;;4.40;4.20;;;;;;;2.04;82.14;98637.72;4312940;32;20117;-71
2021/12/10 09:00:14;;;;;;;2.55;2.45;;;;;;;2.92;82.25;98784.25;4333104;32;20690;-71
2021/12/10 09:02:39;;;;;;;4.07;3.87;;;;;;;2.96;81.62;98788.34;4330752;32;20075;-71
2021/12/10 09:05:07;;;;;;;3.10;3.00;;;;;;;2.96;81.24;98792.72;4324611;32;20612;-71
2021/12/10 09:07:32;;;;;;;2.72;2.62;;;;;;;2.57;81.37;98744.63;4330478;32;20071;-70
2021/12/10 09:09:58;;;;;;;2.80;2.70;;;;;;;2.94;81.39;98784.19;4335015;32;20313;-70
2021/12/10 09:12:24;;;;;;;2.80;2.70;;;;;;;2.95;81.01;98785.88;4323555;32;20583;-70
2021/12/10 09:14:52;;;;;;;4.15;3.95;;;;;;;2.56;81.16;98719.63;4352408;32;20121;-70
2021/12/10 09:17:21;;;;;;;2.80;2.70;;;;;;;2.99;80.79;98777.03;4305224;32;20600;-70
2021/12/10 09:19:47;;;;;;;4.28;4.07;;;;;;;2.98;81.46;98776.16;4342360;32;20932;-70
2021/12/10 09:22:12;;;;;;;2.97;2.87;;;;;;;3.01;81.27;98777.78;4304297;32;20097;-70
2021/12/10 09:24:38;;;;;;;4.05;3.85;;;;;;;2.99;80.57;98785.62;4297507;32;20078;-70
2021/12/10 09:27:04;;;;;;;2.72;2.62;;;;;;;3.02;80.12;98788.97;4317867;32;20075;-72
2021/12/10 09:29:32;;;;;;;2.80;2.70;;;;;;;3.04;79.50;98787.97;4325280;32;20197;-72
2021/12/10 09:31:58;;;;;;;3.20;3.10;;;;;;;3.05;80.20;98787.06;4324348;32;20071;-72
2021/12/10 09:34:23;;;;;;;2.90;2.80;;;;;;;3.05;80.12;98786.19;4324796;32;20811;-71
2021/12/10 09:36:49;;;;;;;4.30;4.10;;;;;;;2.60;79.26;98721.97;4319281;32;20126;-68
2021/12/10 09:39:15;;;;;;;2.83;2.72;;;;;;;3.07;79.27;98785.22;4316321;32;20067;-69
2021/12/10 09:41:40;;;;;;;3.90;3.75;;;;;;;3.12;78.39;98787.56;4324667;32;20582;-69
2021/12/10 09:44:07;;;;;;;3.00;2.90;;;;;;;3.17;78.11;98786.41;4316281;32;20133;-68
2021/12/10 09:46:33;;;;;;;2.80;2.70;;;;;;;3.18;77.59;98807.97;4317860;32;20103;-70
2021/12/10 09:48:59;;;;;;;2.60;2.50;;;;;;;3.17;77.77;98783.00;4309492;32;20087;-68
2021/12/10 09:51:29;;;;;;;2.70;2.60;;;;;;;3.21;77.74;98781.91;4330994;32;20071;-69
2021/12/10 09:53:58;;;;;;;2.90;2.80;;;;;;;3.26;76.85;98792.03;4309615;32;20070;-69
2021/12/10 09:56:24;;;;;;;2.90;2.80;;;;;;;3.22;76.63;98793.94;4324999;33;20112;-68
2021/12/10 09:58:53;;;;;;;4.25;4.05;;;;;;;3.19;77.42;98778.56;4310490;32;20570;-70
2021/12/10 10:01:22;;;;;;;2.90;2.80;;;;;;;3.26;77.33;98786.84;4311754;32;20079;-71
2021/12/10 10:03:49;;;;;;;4.55;4.35;;;;;;;3.31;77.51;98779.69;4310853;32;20607;-71
2021/12/10 10:06:14;;;;;;;2.75;2.65;;;;;;;1.61;76.50;98512.34;4312945;33;20301;-72
2021/12/10 10:08:40;;;;;;;3.80;3.70;;;;;;;3.11;77.19;98747.03;4321670;32;20943;-71
2021/12/10 10:11:11;;;;;;;2.80;2.70;;;;;;;3.30;76.79;98770.22;4314939;32;20119;-71
2021/12/10 10:13:38;;;;;;;4.03;3.85;;;;;;;3.28;77.03;98766.87;4334052;32;20181;-71
2021/12/10 10:16:04;;;;;;;2.75;2.65;;;;;;;3.24;77.46;98768.78;4310691;32;20090;-70
2021/12/10 10:18:30;;;;;;;2.90;2.80;;;;;;;3.26;77.20;98759.16;4331456;32;21059;-70
2021/12/10 10:20:58;;;;;;;3.20;3.10;;;;;;;3.23;77.90;98777.47;4327945;32;20063;-71
2021/12/10 10:23:24;;;;;;;2.70;2.60;;;;;;;3.27;77.74;98757.41;4313792;32;20086;-71
2021/12/10 10:25:51;;;;;;;4.55;4.35;;;;;;;3.32;77.90;98739.84;4310154;32;20576;-71
2021/12/10 10:28:16;;;;;;;2.90;2.80;;;;;;;2.77;76.47;98646.00;4339081;32;20168;-70
2021/12/10 10:31:01;;;;;;;4.37;4.18;;;;;;;3.42;76.79;98742.78;4340061;32;20069;-70
2021/12/10 10:33:28;;;;;;;2.87;2.78;;;;;;;3.47;76.25;98753.72;4309406;32;20075;-70
2021/12/10 10:35:57;;;;;;;3.10;3.00;;;;;;;3.46;76.68;98759.84;4322848;32;20478;-70
2021/12/10 10:38:22;;;;;;;2.80;2.70;;;;;;;3.54;76.96;98742.94;4329381;32;20165;-70
2021/12/10 10:40:54;;;;;;;4.15;3.95;;;;;;;3.52;76.37;98726.63;4326906;32;20655;-69
2021/12/10 10:43:19;;;;;;;2.72;2.62;;;;;;;3.62;76.54;98731.31;4309641;32;20463;-71
2021/12/10 10:45:45;;;;;;;4.20;4.00;;;;;;;3.43;76.27;98726.28;4316424;32;20161;-72
2021/12/10 10:48:11;;;;;;;2.65;2.55;;;;;;;3.63;75.48;98740.75;4306167;32;20102;-72
2021/12/10 10:50:58;;;;;;;3.90;3.72;;;;;;;3.62;75.22;98737.34;4320109;32;20085;-70
2021/12/10 10:53:31;;;;;;;3.40;3.20;;;;;;;3.69;75.58;98733.50;4316186;32;20063;-71
2021/12/10 10:56:03;;;;;;;3.00;2.90;;;;;;;3.67;75.33;98732.75;4304772;32;20083;-71
2021/12/10 10:58:31;;;;;;;3.20;3.10;;;;;;;3.64;74.29;98732.91;4315540;32;20081;-72
2021/12/10 11:01:21;;;;;;;3.28;3.17;;;;;;;3.69;75.06;98730.03;4326374;32;20157;-71
2021/12/10 11:03:59;;;;;;;4.80;4.35;;;;;;;3.75;74.64;98734.94;4358087;32;20658;-66
2021/12/10 11:06:32;;;;;;;2.90;2.80;;;;;;;3.92;73.49;98727.00;4359214;32;20094;-71
2021/12/10 11:09:08;;;;;;;2.90;2.80;;;;;;;3.63;74.13;98691.47;4321277;32;20287;-69
2021/12/10 11:11:35;;;;;;;3.03;2.92;;;;;;;3.89;74.04;98729.78;4322965;32;20083;-70
2021/12/10 11:14:23;;;;;;;3.37;3.17;;;;;;;2.31;73.71;98466.41;4312787;32;20093;-70
2021/12/10 11:16:51;;;;;;;4.35;4.15;;;;;;;4.04;74.26;98732.44;4358493;32;20463;-68
2021/12/10 11:19:21;;;;;;;3.10;2.90;;;;;;;4.00;72.87;98737.78;4315875;32;20062;-69
2021/12/10 11:22:09;;;;;;;4.80;4.50;;;;;;;4.16;72.70;98731.72;4320158;32;20078;-70
2021/12/10 11:24:37;;;;;;;3.12;3.03;;;;;;;4.06;72.01;98730.59;4331994;32;20165;-66
2021/12/10 11:27:05;;;;;;;3.37;3.28;;;;;;;4.08;71.95;98736.53;4331075;32;20655;-71
2021/12/10 11:29:37;;;;;;;3.00;2.90;;;;;;;4.06;72.29;98717.59;4327440;32;20088;-71
2021/12/10 11:32:09;;;;;;;3.65;3.50;;;;;;;4.14;72.40;98738.78;4326450;32;20086;-71
2021/12/10 11:34:51;;;;;;;3.10;3.00;;;;;;;4.07;72.21;98738.28;4328466;32;20079;-72
2021/12/10 11:37:31;;;;;;;3.00;2.90;;;;;;;4.13;73.31;98737.09;4332136;32;20093;-71
2021/12/10 11:39:57;;;;;;;3.25;3.12;;;;;;;4.18;71.54;98740.25;4326058;32;20124;-75
2021/12/10 11:42:41;;;;;;;3.08;2.97;;;;;;;3.77;71.33;98656.06;4301574;32;20580;-75
2021/12/10 11:45:31;;;;;;;2.80;2.70;;;;;;;3.95;71.14;98687.09;4330828;32;20197;-75
2021/12/10 11:48:05;;;;;;;2.90;2.80;;;;;;;3.18;70.77;98556.56;4311918;32;20132;-75
2021/12/10 11:50:30;;;;;;;3.10;3.00;;;;;;;4.33;72.04;98744.59;4316365;32;20714;-75
2021/12/10 11:53:04;;;;;;;3.00;2.90;;;;;;;4.38;71.19;98739.12;4329300;32;21046;-76
2021/12/10 11:55:32;;;;;;;2.90;2.80;;;;;;;1.44;70.26;98315.00;4314980;32;20342;-75